Terminal Aerodrome Forecast
Issued by NWS

Home | Current Version | Previous Version | Graphics & Text | Print | Product List | Glossary On
Versions: 1 2 3 4 5 6 7 8 9 10 11 12 13
000
FTUS43 KICT 112342
TAFRSL
TAF
KRSL 112342Z 1200/1224 34019G28KT P6SM FEW050 SCT150
     FM120200 35014KT P6SM FEW050 SCT150
     FM120600 32009KT P6SM SKC
     FM121100 29009KT P6SM SKC=

USA.gov is the U.S. government's official web portal to all federal, state and local government web resources and services.